Time;durP1;ratioP1;P1;durP2;ratioP2;P2;SDS_P1;SDS_P2;PMS_P1;PMS_P2;Temp;Humidity;BMP_temperature;BMP_pressure;BME280_temperature;BME280_humidity;BME280_pressure;Samples;Min_cycle;Max_cycle;Signal;HPM_P1;HPM_P2
2021/04/26 00:01:44;;;;;;;6.60;2.70;;;4.80;99.90;;;;;;5005458;28;20019;-75
2021/04/26 00:04:09;;;;;;;9.68;2.85;;;4.80;99.90;;;;;;4986397;28;20039;-76
2021/04/26 00:06:35;;;;;;;8.50;2.53;;;4.80;99.90;;;;;;4992752;28;20016;-75
2021/04/26 00:09:01;;;;;;;4.75;2.10;;;4.80;99.90;;;;;;4969617;28;20031;-75
2021/04/26 00:11:27;;;;;;;9.63;2.25;;;4.70;99.90;;;;;;4968874;28;20018;-76
2021/04/26 00:13:52;;;;;;;9.10;2.53;;;4.80;99.90;;;;;;4974047;28;20027;-75
2021/04/26 00:16:18;;;;;;;7.80;2.67;;;4.70;99.90;;;;;;4973968;28;20038;-76
2021/04/26 00:18:48;;;;;;;7.85;2.40;;;4.60;99.90;;;;;;4988526;28;20071;-77
2021/04/26 00:21:13;;;;;;;8.30;2.42;;;4.60;99.90;;;;;;4977176;28;20008;-76
2021/04/26 00:23:40;;;;;;;9.73;3.00;;;4.60;99.90;;;;;;4968304;28;20042;-76
2021/04/26 00:26:06;;;;;;;5.40;2.63;;;4.70;99.90;;;;;;4966432;28;20038;-75
2021/04/26 00:28:31;;;;;;;6.15;2.40;;;4.60;99.90;;;;;;4981948;28;20033;-76
2021/04/26 00:30:57;;;;;;;10.45;3.35;;;4.50;99.90;;;;;;4975781;28;20031;-76
2021/04/26 00:33:23;;;;;;;9.63;2.60;;;4.50;99.90;;;;;;4974524;28;20037;-76
2021/04/26 00:35:52;;;;;;;10.70;3.05;;;4.50;99.90;;;;;;4973275;28;20035;-76
2021/04/26 00:38:20;;;;;;;12.32;2.40;;;4.40;99.90;;;;;;4978103;28;20083;-76
2021/04/26 00:40:47;;;;;;;10.25;2.80;;;4.40;99.90;;;;;;4970465;28;20047;-76
2021/04/26 00:43:16;;;;;;;11.82;2.85;;;4.40;99.90;;;;;;4996607;28;20021;-74
2021/04/26 00:45:43;;;;;;;3.53;2.50;;;4.50;99.90;;;;;;4987109;28;20096;-75
2021/04/26 00:48:09;;;;;;;5.60;2.67;;;4.40;99.90;;;;;;4989904;28;20193;-76
2021/04/26 00:50:38;;;;;;;4.95;2.38;;;4.40;99.90;;;;;;5040442;28;20041;-74
2021/04/26 00:53:04;;;;;;;9.18;2.97;;;4.50;99.90;;;;;;4995166;28;20043;-75
2021/04/26 00:55:36;;;;;;;7.18;2.47;;;4.50;99.90;;;;;;4982830;28;20176;-75
2021/04/26 00:58:02;;;;;;;10.43;2.67;;;4.50;99.90;;;;;;4975304;28;20016;-75
2021/04/26 01:00:29;;;;;;;8.25;2.80;;;4.40;99.90;;;;;;4975123;28;20023;-75
2021/04/26 01:02:55;;;;;;;13.82;2.80;;;4.40;99.90;;;;;;5046123;28;20051;-75
2021/04/26 01:05:25;;;;;;;6.20;2.60;;;4.40;99.90;;;;;;5009622;28;20021;-72
2021/04/26 01:07:51;;;;;;;9.63;2.72;;;4.40;99.90;;;;;;5011631;28;20042;-76
2021/04/26 01:10:20;;;;;;;12.27;2.88;;;4.30;99.90;;;;;;4989179;28;20024;-75
2021/04/26 01:13:24;;;;;;;7.65;2.58;;;4.30;99.90;;;;;;5044497;28;20087;-75
2021/04/26 01:16:12;;;;;;;8.07;2.55;;;4.30;99.90;;;;;;4977140;28;20022;-75
2021/04/26 01:19:05;;;;;;;10.05;3.33;;;4.30;99.90;;;;;;4973992;28;20039;-74
2021/04/26 01:21:45;;;;;;;12.43;2.90;;;4.20;99.90;;;;;;4975103;28;20066;-75
2021/04/26 01:24:34;;;;;;;7.05;2.40;;;4.20;99.90;;;;;;4976894;28;20067;-74
2021/04/26 01:27:50;;;;;;;12.07;2.50;;;4.20;99.90;;;;;;4963999;28;20022;-76
2021/04/26 01:30:30;;;;;;;8.15;2.60;;;4.20;99.90;;;;;;4969747;28;20034;-74
2021/04/26 01:33:22;;;;;;;10.60;2.75;;;4.20;99.90;;;;;;4975167;28;20057;-74
2021/04/26 01:36:06;;;;;;;13.00;3.03;;;4.20;99.90;;;;;;5008966;28;20013;-75
2021/04/26 01:38:39;;;;;;;9.00;2.42;;;4.10;99.90;;;;;;4986470;28;20043;-74
2021/04/26 01:41:12;;;;;;;;;;;4.10;99.90;;;;;;4982865;28;20016;-76
2021/04/26 01:43:47;;;;;;;9.75;3.08;;;4.10;99.90;;;;;;4969125;28;19902;-72
2021/04/26 01:46:15;;;;;;;13.20;4.18;;;4.10;99.90;;;;;;5014889;28;20032;-75
2021/04/26 01:48:48;;;;;;;6.00;2.85;;;4.10;99.90;;;;;;4992512;28;20036;-74
2021/04/26 01:51:16;;;;;;;11.50;3.03;;;4.10;99.90;;;;;;5021022;28;20062;-75
2021/04/26 01:53:44;;;;;;;9.27;3.08;;;4.10;99.90;;;;;;4994658;28;20031;-75
2021/04/26 01:56:14;;;;;;;10.95;2.90;;;4.10;99.90;;;;;;4973770;28;20031;-73
2021/04/26 01:58:49;;;;;;;11.85;3.42;;;4.10;99.90;;;;;;5036910;28;20043;-76
2021/04/26 02:01:22;;;;;;;14.48;2.47;;;4.10;99.90;;;;;;4975639;28;20023;-76
2021/04/26 02:04:15;;;;;;;9.02;2.70;;;4.00;99.90;;;;;;4959465;28;20028;-73
2021/04/26 02:06:46;;;;;;;6.22;2.60;;;4.00;99.90;;;;;;4966869;28;20058;-75
2021/04/26 02:09:15;;;;;;;7.07;3.40;;;4.00;99.90;;;;;;4960921;28;20061;-73
2021/04/26 02:11:47;;;;;;;12.85;3.47;;;4.00;99.90;;;;;;5025918;28;20030;-75
2021/04/26 02:14:18;;;;;;;12.60;2.50;;;4.00;99.90;;;;;;5041563;28;20027;-74
2021/04/26 02:16:46;;;;;;;13.88;3.60;;;4.00;99.90;;;;;;5022650;28;20017;-74
2021/04/26 02:19:12;;;;;;;14.65;3.05;;;4.00;99.90;;;;;;4995107;28;20031;-73
2021/04/26 02:21:44;;;;;;;12.50;3.10;;;4.00;99.90;;;;;;4968446;28;20024;-73
2021/04/26 02:24:11;;;;;;;10.63;2.72;;;4.00;99.90;;;;;;4999453;28;20009;-72
2021/04/26 02:26:44;;;;;;;10.07;2.53;;;4.00;99.90;;;;;;4976353;28;20023;-73
2021/04/26 02:29:09;;;;;;;;;;;4.00;99.90;;;;;;4975322;28;20034;-74
2021/04/26 02:31:39;;;;;;;7.10;3.00;;;4.00;99.90;;;;;;4986389;28;19903;-76
2021/04/26 02:34:23;;;;;;;7.25;2.83;;;4.00;99.90;;;;;;4975233;28;20012;-73
2021/04/26 02:36:53;;;;;;;10.85;3.20;;;4.00;99.90;;;;;;4973937;28;20020;-73
2021/04/26 02:39:20;;;;;;;8.20;2.58;;;4.10;99.90;;;;;;4992020;28;20025;-75
2021/04/26 02:41:53;;;;;;;8.88;2.85;;;4.10;99.90;;;;;;4974626;28;20039;-73
2021/04/26 02:44:20;;;;;;;11.27;2.72;;;4.00;99.90;;;;;;4973305;28;20015;-73
2021/04/26 02:46:46;;;;;;;8.43;2.88;;;4.00;99.90;;;;;;4975778;28;20054;-75
2021/04/26 02:49:15;;;;;;;8.27;2.78;;;4.00;99.90;;;;;;4973894;28;20041;-74
2021/04/26 02:51:44;;;;;;;9.80;2.92;;;4.00;99.90;;;;;;5018286;28;20045;-73
2021/04/26 02:54:10;;;;;;;15.63;3.25;;;4.00;99.90;;;;;;4976098;28;20050;-74
2021/04/26 02:56:39;;;;;;;6.32;2.85;;;4.00;99.90;;;;;;5013423;28;20026;-76
2021/04/26 02:59:08;;;;;;;15.52;3.80;;;3.90;99.90;;;;;;4975594;28;21172;-76
2021/04/26 03:02:03;;;;;;;7.18;3.28;;;3.90;99.90;;;;;;4971044;28;20027;-74
2021/04/26 03:04:31;;;;;;;9.57;3.05;;;3.80;99.90;;;;;;4964331;28;20023;-73
2021/04/26 03:07:00;;;;;;;9.60;2.63;;;3.80;99.90;;;;;;4976139;28;20015;-73
2021/04/26 03:09:30;;;;;;;6.03;2.60;;;3.80;99.90;;;;;;5014188;28;21431;-73
2021/04/26 03:11:56;;;;;;;10.07;2.80;;;3.80;99.90;;;;;;4963479;28;20031;-72
2021/04/26 03:14:25;;;;;;;9.25;2.53;;;3.80;99.90;;;;;;4975216;28;20068;-75
2021/04/26 03:16:54;;;;;;;9.20;3.45;;;3.80;99.90;;;;;;4984276;28;20019;-74
2021/04/26 03:19:20;;;;;;;7.53;2.67;;;3.70;99.90;;;;;;4982885;28;20030;-73
2021/04/26 03:21:55;;;;;;;13.43;3.15;;;3.70;99.90;;;;;;4978842;28;20174;-75
2021/04/26 03:24:37;;;;;;;8.68;3.10;;;3.70;99.90;;;;;;4993257;28;20015;-72
2021/04/26 03:27:11;;;;;;;4.32;2.47;;;3.70;99.90;;;;;;4975850;28;20023;-74
2021/04/26 03:29:39;;;;;;;12.73;2.85;;;3.70;99.90;;;;;;5047769;28;20030;-74
2021/04/26 03:32:07;;;;;;;14.82;4.50;;;3.60;99.90;;;;;;5021991;28;20019;-75
2021/04/26 03:34:37;;;;;;;13.00;3.05;;;3.60;99.90;;;;;;4965063;28;20023;-75
2021/04/26 03:37:03;;;;;;;7.65;2.67;;;3.60;99.90;;;;;;5039984;28;20091;-75
2021/04/26 03:39:29;;;;;;;8.07;3.15;;;3.60;99.90;;;;;;4981684;28;20012;-74
2021/04/26 03:41:55;;;;;;;10.00;2.97;;;3.60;99.90;;;;;;5042706;28;20027;-74
2021/04/26 03:44:28;;;;;;;8.55;2.92;;;3.60;99.90;;;;;;4979713;28;20019;-75
2021/04/26 03:47:05;;;;;;;5.57;2.60;;;3.60;99.90;;;;;;5047582;28;20019;-75
2021/04/26 03:49:37;;;;;;;8.43;2.97;;;3.60;99.90;;;;;;5026397;28;20079;-76
2021/04/26 03:52:04;;;;;;;9.85;3.28;;;3.70;99.90;;;;;;4978124;28;20022;-78
2021/04/26 03:54:31;;;;;;;10.85;2.85;;;3.60;99.90;;;;;;4983653;28;20043;-75
2021/04/26 03:57:07;;;;;;;8.00;3.53;;;3.60;99.90;;;;;;5029665;28;20106;-74
2021/04/26 03:59:47;;;;;;;9.35;3.30;;;3.70;99.90;;;;;;4981500;28;20041;-75
2021/04/26 04:02:25;;;;;;;9.65;3.05;;;3.70;99.90;;;;;;5026361;28;20024;-75
2021/04/26 04:05:10;;;;;;;13.05;3.22;;;3.70;99.90;;;;;;5057754;28;20024;-74
2021/04/26 04:07:37;;;;;;;9.82;3.20;;;3.60;99.90;;;;;;5047484;28;20560;-74
2021/04/26 04:10:11;;;;;;;6.15;2.63;;;3.50;99.90;;;;;;4981880;28;20035;-76
2021/04/26 04:12:45;;;;;;;6.75;2.97;;;3.60;99.90;;;;;;4981566;28;20011;-77
2021/04/26 04:15:12;;;;;;;8.52;3.35;;;3.50;99.90;;;;;;4979001;28;20094;-75
2021/04/26 04:17:38;;;;;;;11.75;3.17;;;3.50;99.90;;;;;;4977410;28;20071;-76
2021/04/26 04:20:10;;;;;;;11.73;3.55;;;3.50;99.90;;;;;;4996236;28;20086;-75
2021/04/26 04:22:40;;;;;;;10.88;3.40;;;3.50;99.90;;;;;;4994593;28;20027;-75
2021/04/26 04:25:08;;;;;;;7.75;3.50;;;3.50;99.90;;;;;;4979925;28;20050;-73
2021/04/26 04:27:37;;;;;;;12.05;3.25;;;3.40;99.90;;;;;;5000611;28;20027;-76
2021/04/26 04:30:08;;;;;;;12.73;3.08;;;3.40;99.90;;;;;;4999734;28;20097;-74
2021/04/26 04:32:37;;;;;;;13.73;3.50;;;3.40;99.90;;;;;;4991391;28;20028;-72
2021/04/26 04:35:10;;;;;;;6.32;3.03;;;3.40;99.90;;;;;;4984210;28;20086;-74
2021/04/26 04:37:57;;;;;;;21.15;3.55;;;3.40;99.90;;;;;;4980091;28;20065;-75
2021/04/26 04:40:52;;;;;;;8.60;3.03;;;3.40;99.90;;;;;;4993060;28;20035;-75
2021/04/26 04:43:23;;;;;;;11.10;3.85;;;3.50;99.90;;;;;;4971050;28;20018;-74
2021/04/26 04:45:49;;;;;;;8.65;3.13;;;3.40;99.90;;;;;;4969180;28;20020;-72
2021/04/26 04:48:21;;;;;;;10.57;2.70;;;3.40;99.90;;;;;;4985229;28;20075;-73
2021/04/26 04:50:46;;;;;;;19.00;3.92;;;3.40;99.90;;;;;;4970443;28;20012;-73
2021/04/26 04:53:14;;;;;;;14.90;3.10;;;3.40;99.90;;;;;;4977345;28;20034;-73
2021/04/26 04:55:41;;;;;;;15.18;4.45;;;3.40;99.90;;;;;;4974020;28;20101;-73
2021/04/26 04:58:06;;;;;;;12.80;3.35;;;3.40;99.90;;;;;;4970530;28;20042;-72
2021/04/26 05:00:39;;;;;;;10.20;3.53;;;3.50;99.90;;;;;;4968161;28;20024;-75
2021/04/26 05:03:05;;;;;;;;;;;3.50;99.90;;;;;;5027103;28;20071;-73
2021/04/26 05:05:33;;;;;;;13.15;2.95;;;3.50;99.90;;;;;;4976549;28;19925;-73
2021/04/26 05:08:10;;;;;;;6.60;3.17;;;3.60;99.90;;;;;;4965536;28;20032;-75
2021/04/26 05:10:37;;;;;;;15.25;3.17;;;3.60;99.90;;;;;;4979970;28;20023;-74
2021/04/26 05:13:03;;;;;;;8.13;3.13;;;3.60;99.90;;;;;;4960490;28;20012;-74
2021/04/26 05:15:29;;;;;;;6.95;2.88;;;3.60;99.90;;;;;;4977536;28;20042;-74
2021/04/26 05:17:58;;;;;;;8.93;2.83;;;3.60;99.90;;;;;;4966025;28;20020;-74
2021/04/26 05:20:28;;;;;;;10.25;3.53;;;3.60;99.90;;;;;;4973430;28;20064;-74
2021/04/26 05:22:55;;;;;;;13.63;2.90;;;3.70;99.90;;;;;;4979678;28;20173;-73
2021/04/26 05:25:21;;;;;;;17.10;3.20;;;3.70;99.90;;;;;;4984659;28;20084;-74
2021/04/26 05:27:48;;;;;;;16.52;3.40;;;3.80;99.90;;;;;;4974092;28;20058;-76
2021/04/26 05:30:31;;;;;;;8.77;3.35;;;3.80;99.90;;;;;;4972804;28;20027;-73
2021/04/26 05:32:57;;;;;;;10.23;3.83;;;3.80;99.90;;;;;;4972778;28;20066;-74
2021/04/26 05:35:29;;;;;;;16.70;3.40;;;3.80;99.90;;;;;;4963021;28;20024;-74
2021/04/26 05:37:54;;;;;;;14.70;3.97;;;3.90;99.90;;;;;;5000238;28;20032;-74
2021/04/26 05:40:23;;;;;;;8.50;3.10;;;3.80;99.90;;;;;;4986970;28;20055;-75
2021/04/26 05:42:52;;;;;;;9.40;2.75;;;3.90;99.90;;;;;;5010001;28;20104;-73
2021/04/26 05:45:22;;;;;;;6.05;2.92;;;3.90;99.90;;;;;;4969679;28;20023;-73
2021/04/26 05:47:54;;;;;;;8.30;2.88;;;4.00;99.90;;;;;;4965388;28;20038;-75
2021/04/26 05:50:21;;;;;;;10.80;2.92;;;4.00;99.90;;;;;;4981098;28;20012;-76
2021/04/26 05:52:50;;;;;;;6.93;3.30;;;4.00;99.90;;;;;;4964773;28;20020;-74
2021/04/26 05:55:36;;;;;;;9.27;3.30;;;4.00;99.90;;;;;;4966692;28;20054;-75
2021/04/26 05:58:16;;;;;;;12.27;3.30;;;4.10;99.90;;;;;;4982277;28;20065;-73
2021/04/26 06:00:41;;;;;;;13.55;2.97;;;4.20;99.90;;;;;;4966555;28;20023;-74
2021/04/26 06:03:07;;;;;;;9.18;3.17;;;4.30;99.90;;;;;;4968612;28;20538;-73
2021/04/26 06:05:39;;;;;;;10.52;3.30;;;4.30;99.90;;;;;;4967440;28;20082;-74
2021/04/26 06:08:04;;;;;;;12.15;4.15;;;4.30;99.90;;;;;;4959232;29;20049;-77
2021/04/26 06:10:30;;;;;;;5.97;3.00;;;4.30;99.90;;;;;;4960695;28;20027;-74
2021/04/26 06:12:55;;;;;;;15.90;3.83;;;4.30;99.90;;;;;;4957026;28;20038;-74
2021/04/26 06:15:23;;;;;;;11.82;3.33;;;4.40;99.90;;;;;;4958227;28;20080;-76
2021/04/26 06:17:48;;;;;;;6.47;3.03;;;4.40;99.90;;;;;;4945701;28;20024;-74
2021/04/26 06:20:15;;;;;;;21.38;4.30;;;4.50;99.90;;;;;;4953977;28;20380;-75
2021/04/26 06:22:41;;;;;;;11.27;2.88;;;4.70;99.90;;;;;;4953272;29;20035;-75
2021/04/26 06:25:08;;;;;;;11.15;3.28;;;4.80;99.90;;;;;;4956481;28;20096;-74
2021/04/26 06:27:34;;;;;;;16.33;3.50;;;4.80;99.90;;;;;;4962518;28;20045;-75
2021/04/26 06:30:00;;;;;;;6.80;3.10;;;4.80;99.90;;;;;;4961502;28;20343;-75
2021/04/26 06:32:26;;;;;;;13.40;3.42;;;4.90;99.90;;;;;;4954295;28;20285;-77
2021/04/26 06:34:52;;;;;;;11.32;2.97;;;4.90;99.90;;;;;;4949408;28;20027;-75
2021/04/26 06:37:19;;;;;;;18.15;3.95;;;5.10;99.90;;;;;;4943500;28;20075;-75
2021/04/26 06:39:44;;;;;;;12.18;3.92;;;5.10;99.90;;;;;;4951742;28;20649;-76
2021/04/26 06:42:11;;;;;;;20.02;4.90;;;5.10;99.90;;;;;;4950502;29;20134;-77
2021/04/26 06:44:37;;;;;;;18.83;3.72;;;5.20;99.90;;;;;;4948175;28;20110;-76
2021/04/26 06:47:04;;;;;;;7.43;2.88;;;5.20;99.90;;;;;;4966611;28;20035;-75
2021/04/26 06:49:30;;;;;;;17.52;3.20;;;5.20;99.90;;;;;;4974786;28;20087;-73
2021/04/26 06:51:55;;;;;;;12.23;4.07;;;5.30;99.90;;;;;;4965985;28;20028;-76
2021/04/26 06:54:21;;;;;;;8.80;3.33;;;5.40;99.90;;;;;;4962257;28;20138;-76
2021/04/26 06:56:50;;;;;;;9.30;3.35;;;5.50;99.90;;;;;;4970517;28;20047;-76
2021/04/26 06:59:16;;;;;;;6.35;2.67;;;5.50;99.90;;;;;;4967322;28;20020;-76
2021/04/26 07:01:42;;;;;;;12.20;3.22;;;5.70;99.90;;;;;;4960546;28;20111;-75
2021/04/26 07:04:09;;;;;;;10.18;2.65;;;5.80;99.90;;;;;;4952553;28;20064;-77
2021/04/26 07:06:36;;;;;;;11.13;2.97;;;5.80;99.90;;;;;;4947230;28;20030;-75
2021/04/26 07:09:03;;;;;;;8.60;2.70;;;5.80;99.90;;;;;;4962816;28;20036;-76
2021/04/26 07:11:30;;;;;;;9.30;2.20;;;6.00;99.90;;;;;;4969116;28;20015;-76
2021/04/26 07:13:55;;;;;;;10.45;2.58;;;6.00;99.90;;;;;;4969684;28;20023;-75
2021/04/26 07:16:21;;;;;;;15.57;2.63;;;6.00;99.90;;;;;;5002637;28;20036;-76
2021/04/26 07:18:47;;;;;;;8.23;3.00;;;6.00;99.90;;;;;;4993077;28;20029;-76
2021/04/26 07:21:13;;;;;;;13.70;2.70;;;6.20;99.90;;;;;;4973656;28;20087;-76
2021/04/26 07:23:42;;;;;;;7.47;2.80;;;6.40;99.90;;;;;;4973055;28;20020;-76
2021/04/26 07:26:08;;;;;;;6.50;2.47;;;6.40;99.90;;;;;;5036517;28;20023;-73
2021/04/26 07:28:34;;;;;;;4.60;2.28;;;6.50;99.90;;;;;;4965911;28;20058;-75
2021/04/26 07:31:00;;;;;;;11.25;2.85;;;6.60;99.90;;;;;;4972123;28;20016;-75
2021/04/26 07:33:25;;;;;;;9.52;2.67;;;6.80;99.90;;;;;;4957649;28;20564;-75
2021/04/26 07:35:51;;;;;;;6.10;3.05;;;6.80;99.90;;;;;;4950561;28;20036;-76
2021/04/26 07:38:17;;;;;;;8.68;2.28;;;6.90;99.90;;;;;;5002453;28;20032;-75
2021/04/26 07:40:45;;;;;;;5.18;2.22;;;7.20;99.90;;;;;;4954501;28;20031;-75
2021/04/26 07:43:11;;;;;;;7.32;2.30;;;7.20;99.90;;;;;;5011968;28;20488;-76
2021/04/26 07:45:36;;;;;;;2.88;1.70;;;7.20;99.90;;;;;;4954668;28;20285;-72
2021/04/26 07:48:04;;;;;;;9.38;2.92;;;7.20;99.90;;;;;;4955839;28;20038;-75
2021/04/26 07:50:30;;;;;;;7.70;2.10;;;7.20;99.90;;;;;;4955251;28;20023;-75
2021/04/26 07:52:55;;;;;;;7.47;2.60;;;7.20;99.90;;;;;;4966720;28;20014;-74
2021/04/26 07:55:22;;;;;;;7.70;2.38;;;7.30;99.90;;;;;;4947406;28;20061;-74
2021/04/26 07:57:49;;;;;;;12.00;2.67;;;7.50;99.90;;;;;;4960616;28;20039;-75
2021/04/26 08:00:17;;;;;;;5.50;2.13;;;7.60;99.90;;;;;;4967449;28;20035;-74
2021/04/26 08:02:43;;;;;;;8.02;2.25;;;7.60;99.90;;;;;;4956340;28;20027;-76
2021/04/26 08:05:11;;;;;;;8.85;2.65;;;7.60;99.90;;;;;;4955001;28;20031;-76
2021/04/26 08:07:37;;;;;;;11.50;2.50;;;7.80;99.90;;;;;;4975970;28;20023;-75
2021/04/26 08:10:04;;;;;;;6.65;2.33;;;7.90;99.90;;;;;;4971107;28;20141;-77
2021/04/26 08:12:29;;;;;;;5.82;1.95;;;7.90;99.90;;;;;;5025059;28;20031;-75
2021/04/26 08:14:56;;;;;;;5.47;1.98;;;7.90;99.90;;;;;;4970606;28;20069;-76
2021/04/26 08:17:21;;;;;;;2.50;1.83;;;7.90;99.90;;;;;;5019511;28;20040;-75
2021/04/26 08:19:47;;;;;;;3.75;2.10;;;8.10;99.90;;;;;;4968896;28;20035;-76
2021/04/26 08:22:15;;;;;;;9.45;2.25;;;8.20;99.90;;;;;;4970894;28;20038;-76
2021/04/26 08:24:40;;;;;;;8.93;2.03;;;8.40;99.90;;;;;;4969021;28;20023;-75
2021/04/26 08:27:14;;;;;;;8.27;2.17;;;8.50;99.90;;;;;;4973671;28;20227;-77
2021/04/26 08:29:46;;;;;;;5.93;1.77;;;8.60;99.90;;;;;;4975315;28;20039;-76
2021/04/26 08:32:12;;;;;;;10.32;2.05;;;8.50;99.90;;;;;;4947503;28;20057;-77
2021/04/26 08:34:38;;;;;;;7.63;2.55;;;8.60;99.90;;;;;;4945830;28;20039;-77
2021/04/26 08:37:04;;;;;;;6.00;2.60;;;8.60;99.90;;;;;;4957059;28;20031;-79
2021/04/26 08:39:29;;;;;;;6.22;2.13;;;8.80;99.90;;;;;;4957424;29;20394;-75
2021/04/26 08:41:55;;;;;;;4.03;2.25;;;9.00;99.90;;;;;;4956332;28;20015;-75
2021/04/26 08:44:21;;;;;;;4.65;1.70;;;9.00;99.90;;;;;;4955339;29;20427;-75
2021/04/26 08:46:47;;;;;;;9.55;1.90;;;9.00;99.90;;;;;;4952588;28;20023;-75
2021/04/26 08:49:17;;;;;;;7.68;1.90;;;9.00;99.90;;;;;;4952578;28;20114;-77
2021/04/26 08:51:44;;;;;;;13.88;2.00;;;9.10;99.90;;;;;;4945413;28;20030;-72
2021/04/26 08:54:13;;;;;;;7.25;2.00;;;9.20;99.90;;;;;;4957846;28;20035;-76
2021/04/26 08:56:40;;;;;;;2.35;1.50;;;9.50;99.90;;;;;;4963134;28;20015;-75
2021/04/26 08:59:07;;;;;;;7.00;2.15;;;9.80;99.90;;;;;;4965371;28;20318;-74
2021/04/26 09:01:33;;;;;;;8.73;1.95;;;9.40;99.90;;;;;;4949283;28;20039;-74
2021/04/26 09:04:05;;;;;;;5.70;1.73;;;9.30;99.90;;;;;;4933765;28;20399;-74
2021/04/26 09:06:51;;;;;;;4.93;2.00;;;9.50;99.90;;;;;;4958649;28;20039;-78
2021/04/26 09:09:50;;;;;;;6.70;2.10;;;9.80;99.90;;;;;;4956333;28;20027;-76
2021/04/26 09:12:27;;;;;;;5.20;1.52;;;10.00;99.90;;;;;;4960314;28;20032;-74
2021/04/26 09:14:54;;;;;;;2.75;1.85;;;10.00;99.40;;;;;;4934591;28;20024;-75
2021/04/26 09:17:39;;;;;;;4.28;1.70;;;9.90;99.00;;;;;;4940570;28;20029;-76
2021/04/26 09:20:17;;;;;;;4.22;1.98;;;10.00;99.10;;;;;;4952518;29;20026;-75
2021/04/26 09:22:49;;;;;;;4.63;1.88;;;10.20;97.50;;;;;;4953772;28;20031;-78
2021/04/26 09:25:35;;;;;;;5.18;1.63;;;10.40;97.90;;;;;;4955010;29;20024;-76
2021/04/26 09:28:17;;;;;;;7.43;1.77;;;10.10;97.00;;;;;;4956299;28;20028;-76
2021/04/26 09:30:49;;;;;;;5.88;1.92;;;10.10;97.30;;;;;;4968828;28;20031;-74
2021/04/26 09:33:35;;;;;;;4.38;1.75;;;10.30;96.40;;;;;;4960432;28;20028;-79
2021/04/26 09:36:14;;;;;;;8.07;2.30;;;10.20;96.50;;;;;;4962003;28;20105;-77
2021/04/26 09:39:04;;;;;;;5.03;2.13;;;10.40;96.00;;;;;;4964290;28;20027;-75
2021/04/26 09:41:33;;;;;;;5.32;2.10;;;10.40;96.00;;;;;;4950587;29;20115;-76
2021/04/26 09:44:03;;;;;;;3.38;2.08;;;10.50;95.30;;;;;;4962400;28;20021;-76
2021/04/26 09:46:40;;;;;;;9.00;2.38;;;10.40;94.80;;;;;;4947749;28;20041;-74
2021/04/26 09:49:14;;;;;;;3.33;1.77;;;10.60;94.40;;;;;;4952187;29;20054;-76
2021/04/26 09:51:42;;;;;;;7.13;1.90;;;10.60;93.70;;;;;;4953696;28;20110;-74
2021/04/26 09:54:08;;;;;;;9.55;2.28;;;10.70;93.50;;;;;;4955967;28;20023;-76
2021/04/26 09:56:41;;;;;;;4.57;1.90;;;10.80;93.40;;;;;;4956714;28;20152;-75
2021/04/26 09:59:09;;;;;;;14.35;2.28;;;11.30;93.10;;;;;;4957359;28;20031;-76
2021/04/26 10:01:35;;;;;;;4.07;1.98;;;11.50;89.50;;;;;;5012307;28;20025;-74
2021/04/26 10:04:04;;;;;;;2.58;1.90;;;11.30;90.20;;;;;;4972573;28;20023;-76
2021/04/26 10:06:30;;;;;;;8.68;2.22;;;11.10;90.50;;;;;;4975351;28;20034;-76
2021/04/26 10:08:59;;;;;;;5.95;2.42;;;11.20;90.40;;;;;;4962531;29;20623;-76
2021/04/26 10:11:27;;;;;;;5.75;1.67;;;11.10;89.20;;;;;;5001983;28;20604;-74
2021/04/26 10:14:11;;;;;;;5.57;2.42;;;11.00;90.00;;;;;;4952047;28;20395;-75
2021/04/26 10:16:47;;;;;;;8.10;2.53;;;11.40;90.10;;;;;;4945752;28;20027;-72
2021/04/26 10:19:14;;;;;;;9.40;2.03;;;11.40;87.10;;;;;;4955641;28;20023;-76
2021/04/26 10:21:41;;;;;;;4.25;1.98;;;11.00;88.20;;;;;;4957953;28;20024;-77
2021/04/26 10:24:19;;;;;;;5.75;2.35;;;11.30;89.10;;;;;;4954625;28;20494;-76
2021/04/26 10:26:49;;;;;;;5.60;2.85;;;11.70;86.60;;;;;;4995585;28;20039;-77
2021/04/26 10:29:27;;;;;;;6.32;2.90;;;12.00;87.50;;;;;;4981557;28;20134;-76
2021/04/26 10:32:02;;;;;;;7.47;2.88;;;11.30;86.80;;;;;;4957290;28;20022;-76
2021/04/26 10:34:35;;;;;;;5.95;2.42;;;11.40;88.40;;;;;;4962109;29;20016;-77
2021/04/26 10:37:17;;;;;;;;;;;11.60;85.20;;;;;;4970022;28;20031;-76
2021/04/26 10:40:13;;;;;;;15.05;2.35;;;11.80;84.90;;;;;;4962771;28;19910;-75
2021/04/26 10:42:55;;;;;;;6.85;2.35;;;11.80;85.30;;;;;;4948600;29;20023;-78
2021/04/26 10:45:24;;;;;;;5.53;2.50;;;12.10;83.50;;;;;;4950391;28;20351;-78
2021/04/26 10:48:04;;;;;;;10.13;2.22;;;12.20;80.10;;;;;;4948678;28;20038;-76
2021/04/26 10:50:39;;;;;;;5.57;2.22;;;11.80;81.70;;;;;;4949519;28;20495;-75
2021/04/26 10:53:07;;;;;;;6.18;2.95;;;12.10;80.90;;;;;;4974521;28;20368;-77
2021/04/26 10:55:33;;;;;;;5.60;2.28;;;12.20;81.40;;;;;;4960828;28;20130;-77
2021/04/26 10:58:01;;;;;;;5.97;2.40;;;11.90;80.20;;;;;;5011324;28;20069;-76
2021/04/26 11:00:28;;;;;;;6.13;2.45;;;12.20;82.50;;;;;;4979329;28;20054;-77
2021/04/26 11:03:10;;;;;;;5.07;2.55;;;12.30;80.20;;;;;;4968678;28;20020;-78
2021/04/26 11:05:42;;;;;;;10.65;2.55;;;12.40;80.90;;;;;;4970999;28;20015;-78
2021/04/26 11:08:32;;;;;;;10.65;2.70;;;12.20;81.10;;;;;;4956316;28;20043;-77
2021/04/26 11:13:45;;;;;;;8.40;3.15;;;12.70;78.70;;;;;;5003683;28;20050;-74
2021/04/26 11:16:15;;;;;;;4.90;2.40;;;12.20;77.60;;;;;;4953893;28;20496;-75
2021/04/26 11:18:54;;;;;;;3.45;2.30;;;12.30;78.60;;;;;;4957303;29;20031;-76
2021/04/26 11:21:45;;;;;;;7.00;2.67;;;12.40;74.90;;;;;;4957882;29;20020;-76
2021/04/26 11:24:25;;;;;;;12.80;4.30;;;13.00;78.00;;;;;;4948585;28;20099;-77
2021/04/26 11:27:10;;;;;;;3.42;2.45;;;13.90;75.40;;;;;;4951313;28;20027;-78
2021/04/26 11:29:42;;;;;;;6.05;2.47;;;13.60;74.00;;;;;;4948168;28;20036;-76
2021/04/26 11:32:12;;;;;;;8.10;2.92;;;13.40;74.40;;;;;;4952232;28;20089;-76
2021/04/26 11:34:46;;;;;;;9.57;3.00;;;12.70;76.60;;;;;;4946992;28;20055;-79
2021/04/26 11:37:23;;;;;;;10.13;2.70;;;12.90;77.30;;;;;;4952423;28;20628;-77
2021/04/26 11:39:53;;;;;;;9.35;2.63;;;13.40;72.80;;;;;;4951607;28;20532;-77
2021/04/26 11:42:32;;;;;;;5.38;2.35;;;13.70;73.70;;;;;;4967136;28;20061;-75
2021/04/26 11:44:58;;;;;;;6.20;2.67;;;13.90;71.10;;;;;;4965808;28;20020;-75
2021/04/26 11:47:25;;;;;;;7.22;2.38;;;13.30;72.70;;;;;;4981602;28;20593;-75
2021/04/26 11:49:53;;;;;;;8.85;2.67;;;13.20;71.40;;;;;;4945498;28;20034;-76
2021/04/26 11:52:21;;;;;;;5.68;2.17;;;13.10;72.40;;;;;;4973743;28;20050;-75
2021/04/26 11:54:51;;;;;;;7.50;2.47;;;13.20;72.50;;;;;;4988757;28;20060;-77
2021/04/26 11:57:24;;;;;;;5.60;2.83;;;13.50;72.70;;;;;;4964795;28;20086;-76
2021/04/26 11:59:52;;;;;;;7.97;2.78;;;13.20;73.40;;;;;;4952418;28;20062;-75
2021/04/26 12:02:29;;;;;;;12.15;3.08;;;13.80;71.90;;;;;;4979452;28;20035;-76
2021/04/26 12:04:57;;;;;;;10.25;2.60;;;13.70;68.40;;;;;;4971422;28;20319;-75
2021/04/26 12:07:23;;;;;;;6.78;2.97;;;13.30;69.70;;;;;;4971230;28;20105;-73
2021/04/26 12:10:08;;;;;;;7.03;3.72;;;13.80;70.00;;;;;;4963413;28;20052;-75
2021/04/26 12:12:34;;;;;;;7.05;2.70;;;13.50;72.10;;;;;;4970594;28;20039;-76
2021/04/26 12:15:05;;;;;;;5.82;2.72;;;13.50;71.50;;;;;;4970416;28;20094;-75
2021/04/26 12:17:35;;;;;;;9.02;2.80;;;13.60;72.00;;;;;;4994776;28;20020;-77
2021/04/26 12:20:09;;;;;;;11.23;3.67;;;13.50;72.60;;;;;;4954400;28;20023;-75
2021/04/26 12:22:35;;;;;;;5.25;2.53;;;13.80;71.40;;;;;;4978433;28;20020;-78
2021/04/26 12:25:08;;;;;;;7.28;2.17;;;13.60;71.00;;;;;;5015213;28;20020;-75
2021/04/26 12:27:34;;;;;;;8.23;2.83;;;13.50;71.00;;;;;;5018048;28;20031;-76
2021/04/26 12:30:20;;;;;;;5.93;2.90;;;13.40;70.40;;;;;;5022889;28;20021;-75
2021/04/26 12:32:48;;;;;;;6.68;2.60;;;13.40;70.30;;;;;;4968911;28;20019;-78
2021/04/26 12:35:16;;;;;;;7.85;2.28;;;13.10;72.00;;;;;;5036403;28;20076;-75
2021/04/26 12:37:49;;;;;;;7.35;3.03;;;13.10;72.90;;;;;;4975797;28;20015;-75
2021/04/26 12:40:27;;;;;;;4.82;2.70;;;13.30;71.70;;;;;;4973444;28;20016;-76
2021/04/26 12:42:57;;;;;;;7.82;3.22;;;13.80;71.20;;;;;;4967437;28;20030;-76
2021/04/26 12:45:46;;;;;;;7.03;2.72;;;13.70;71.00;;;;;;4972689;28;20037;-74
2021/04/26 12:48:17;;;;;;;5.75;3.38;;;14.20;70.30;;;;;;5044360;28;20036;-76
2021/04/26 12:50:51;;;;;;;8.95;2.92;;;14.20;70.20;;;;;;4979948;28;20075;-75
2021/04/26 12:53:26;;;;;;;5.80;2.97;;;14.30;67.70;;;;;;4972891;28;20031;-76
2021/04/26 12:56:11;;;;;;;5.38;3.03;;;14.20;67.50;;;;;;4974796;28;20038;-75
2021/04/26 12:58:42;;;;;;;4.82;3.00;;;14.10;68.20;;;;;;4970761;28;20036;-77
2021/04/26 13:01:17;;;;;;;8.63;2.63;;;13.80;70.50;;;;;;4977627;28;20078;-77
2021/04/26 13:03:50;;;;;;;6.80;2.92;;;13.40;72.80;;;;;;4970344;28;20031;-77
2021/04/26 13:06:20;;;;;;;8.15;2.95;;;13.40;73.90;;;;;;4973142;28;20053;-74
2021/04/26 13:08:49;;;;;;;7.85;2.80;;;13.90;75.30;;;;;;4975013;28;20089;-75
2021/04/26 13:11:45;;;;;;;10.18;3.33;;;14.20;72.70;;;;;;4958669;28;20035;-74
2021/04/26 13:14:24;;;;;;;11.45;3.22;;;13.70;72.70;;;;;;4968233;28;20024;-77
2021/04/26 13:17:09;;;;;;;8.52;3.20;;;13.50;74.80;;;;;;4973379;28;20023;-76